Terminal Aerodrome Forecast
Issued by NWS

Home | Current Version | Previous Version | Text Only | Print | Product List | Glossary On
Versions: 1 2 3 4 5 6 7 8 9 10 11 12
629
FTUS43 KEAX 010520
TAFMKC
TAF
KMKC 010520Z 0106/0206 04004KT P6SM SCT030
     FM011000 33002KT P6SM OVC019
     FM011600 33004KT P6SM OVC028
     FM011900 35005KT P6SM OVC035=

USA.gov is the U.S. government's official web portal to all federal, state and local government web resources and services.